Terminal Aerodrome Forecast
Issued by NWS Charleston, WV

Current Version | Previous Version | Graphics & Text | Print | Product List | Glossary On
Versions: 1 2 3 4 5 6 7 8 9 10 11 12 13 14 15 16 17 18 19 20 21 22 23 24
000
FTUS41 KRLX 301730
TAFPKB
TAF
KPKB 301730Z 3018/3118 22006KT P6SM VCTS SCT040CB
      TEMPO 3018/3021 3SM TSRA BKN025CB
     FM310000 VRB03KT P6SM SCT150
     FM311400 21006KT P6SM VCTS SCT040CB=

USA.gov is the U.S. government's official web portal to all federal, state and local government web resources and services.